Sunday, August 28, 2016
08:45 UTC
  |  Log In   |  Register Free
Airport Search:

Tucson International Airport
(KTUS)

Airport information sponsored by:
Bombardier Aerospace at Tucson International (KTUS), Tucson, AZ
FAA data valid effective Jul 21 2016 - Sep 15 2016 (unless otherwise noted).

 
 
 
 
 
 
 
 
 
 
 
 
 
 
Current Aviation Weather for KTUS

Weather Summary


The most recent METAR observation for TUS was updated at: 12:53 UTC
METAR for TUS is not available. Closest METAR is for
METAR

METAR KTUS 280753Z 14007KT 10SM CLR 24/05 A3004 RMK AO2 SLP122 T02390050 $

METAR KTUS 280653Z 18006KT 10SM CLR 24/05 A3003 RMK AO2 SLP121 T02390050 403560222 $

METAR KTUS 280553Z 22004KT 10SM CLR 26/05 A3002 RMK AO2 SLP118 T02560050 10344 20256 51018 $

METAR KAVQ 280835Z 19005KT 10SM CLR 23/02 A2997 RMK AO2 T02330021

METAR KDMA 280758Z 13010KT 10SM CLR 21/06 A3002 RMK AO2 SLP123 T02140061 CHINO RWY30 $

METAR KRYN METAR not available

TAF for TUS is not available.
TAF

KTUS - TAF KTUS 280520Z 2806/2906 15006KT P6SM SKC

KTUS - FM282100 34008KT P6SM FEW120

KTUS - FM290400 25005KT P6SM SKC =

KDMA - TAF KDMA 280502Z 2805/2911 15006KT 9999 FEW100 QNH2999INS

KDMA - BECMG 2817/2818 30009KT 9999 SKC QNH2996INS

KDMA - BECMG 2905/2906 15006KT 9999 SKC QNH3000INS TX34/2822Z TN20/2812Z =

GlobalAir.com is loading additional information.
 Current Weather at TUS
75.0 F° (23.9 C°)

South winds at 6.9 mph
Pressure:
30.03 in
Humidity:
29%
Wind:
South at 6.9 mph
Dew Point:
41.0 F° (5.0 C°)
Visibility:
10.00 mi
TUS NOAA Radar




Find All Airport Services Find A Hotel Find A Rental Car Find A Golf Course Find A Restaurant $100 Hamburger



Airport Weather Forecast for KTUS

Translated METAR for KTUS (0753 UTC)
METAR:
KTUS 280753Z Tucson, Tucson, AZ (KTUS). Aug 28, 0753Z. Wind from 140° at 7 knots, 10 statute miles visibility, Clear Skies, Temperature 24°C, Dewpoint 5°C, Altimeter is 30.04. Remarks: automated station with precipitation discriminator sea level pressure 1012.2 hectopascals hourly temp 23.9°C dewpoint 5.0°C $
Conditions at:
KTUS (Tucson Intl, AZ) observed 0753 UTC 28 August 2016
Temperature:
75.0 F° (23.9 C°)
Dewpoint:
not reported - refer to area weather report
Pressure:
30.03 Hg
Winds:
not reported
Visibility:
10.00
Ceiling:
at least 12,000 feet AGL
Clouds:
not reported - refer to area weather report
Remarks:
SOME DATA ABOVE MAY BE INACCURATE!!!
"$" is an indication the sensor requires maintenance

Translated TAF for TAF for TUS is not available. Refer to local area forecast.
FBO's on the Field
FBO Company Facility Photos Services Transportation Aviation Fuel Prices: Prices include tax
Catering Weather Repair Courtesy Rental Type 100LL JetA JetA+ MOGAS 8087
 
Bombardier Aerospace

Bombardier Aerospace logo
Currently rated 4.6 by 1 person
FS:
Last Updated: Aug-03
Login to update fuel prices
SS:
Contact Bombardier AerospaceMore FBO Information
 
Atlantic Aviation - TUS

Currently rated 5 by 2 people
FS:Independent
Last Updated: Aug-23
Login to update fuel prices
SS:
Contact Atlantic Aviation - TUSMore FBO Information
 
Million Air Tucson

Currently rated 5 by 4 people
FS:Independent
Last Updated: Jul-25
Login to update fuel prices
SS:
Contact Million Air TucsonMore FBO Information
 
Premier Aviation (Million Air)

This FBO has not yet been rated
FS:Independent
Last Updated: Aug-03
Login to update fuel prices
SS:
Contact Premier Aviation (Million Air)More FBO Information
 
Tucson Jet Center

Currently rated 5 by 3 people
FS:Independent
Last Updated: Aug-10
Login to update fuel prices
SS:
Contact Tucson Jet CenterMore FBO Information
 
Velocity Air Inc.

Currently rated 5 by 1 person
FS:Ascent
Last Updated: Aug-17
Login to update fuel prices
SS:
Contact Velocity Air Inc.More FBO Information
 
Add another FBO Facility Photos Catering Weather Repair Courtesy Rental Type 100LL JetA JetA+ MOGAS 8087
Services Transportation Aviation Fuel Prices: Prices include tax


model-print
model-print
model-print
model-print